Weather at Tidal River Airport

Public forecast

Using degrees Celsius for public forecast. Weather courtesy of forecast.io.

Closest aviation weather report (METAR) to Tidal River Airport

Closest report is Avalon Airport, 105.7 nm (195.8 km) NW.

2024/07/17 18:30 (retrieved 37 minutes ago)

YMAV 171830Z AUTO 27009KT 9999 // SCT051 07/05 Q1015 RF000/0004

Closest aviation forecast (TAF) to Tidal River Airport

Closest forecast is Avalon Airport, 105.7 nm (195.8 km) NW.

2024/07/17 18:36 (retrieved 31 minutes ago)

TAF TAF YMAV 171652Z 1718/1818 25010KT 9999 SCT030 BKN045 FM180800 31007KT 9999 BKN045